Time;durP1;ratioP1;P1;durP2;ratioP2;P2;SDS_P1;SDS_P2;PMS_P1;PMS_P2;Temp;Humidity;BMP_temperature;BMP_pressure;BME280_temperature;BME280_humidity;BME280_pressure;Samples;Min_cycle;Max_cycle;Signal;HPM_P1;HPM_P2
2024/01/11 00:02:14;;;;;;;33.20;14.90;;;-4.30;99.90;;;;;;5078272;28;20049;-61
2024/01/11 00:04:41;;;;;;;33.72;14.35;;;-4.80;99.90;;;;;;5078136;28;20554;-61
2024/01/11 00:07:06;;;;;;;31.95;14.07;;;-4.30;99.90;;;;;;5078271;28;20044;-61
2024/01/11 00:09:32;;;;;;;34.65;15.55;;;-4.30;99.90;;;;;;5044325;28;20103;-61
2024/01/11 00:11:58;;;;;;;34.95;15.48;;;-4.40;99.90;;;;;;5060378;28;20106;-60
2024/01/11 00:14:23;;;;;;;32.45;14.68;;;-4.60;99.90;;;;;;5078723;28;20042;-60
2024/01/11 00:16:49;;;;;;;33.92;16.50;;;-4.80;99.90;;;;;;5043137;28;20131;-61
2024/01/11 00:19:15;;;;;;;30.33;15.63;;;-4.80;99.90;;;;;;5077844;28;20100;-61
2024/01/11 00:21:40;;;;;;;32.75;15.50;;;-4.40;99.90;;;;;;5078771;28;20052;-60
2024/01/11 00:24:06;;;;;;;32.53;15.93;;;-4.90;99.90;;;;;;5064161;28;20047;-61
2024/01/11 00:26:31;;;;;;;36.80;16.88;;;-4.90;99.90;;;;;;5064117;28;20045;-61
2024/01/11 00:28:57;;;;;;;33.90;17.08;;;-4.70;99.90;;;;;;5082450;28;20076;-60
2024/01/11 00:31:23;;;;;;;37.70;15.88;;;-4.60;99.90;;;;;;5082262;28;20093;-59
2024/01/11 00:33:48;;;;;;;34.97;15.95;;;-4.80;99.90;;;;;;5064377;28;20052;-60
2024/01/11 00:36:19;;;;;;;36.70;16.80;;;-4.80;99.90;;;;;;5081257;28;20044;-60
2024/01/11 00:38:45;;;;;;;37.03;16.90;;;-4.50;99.90;;;;;;5081737;28;20531;-60
2024/01/11 00:41:11;;;;;;;35.20;16.60;;;-4.50;99.90;;;;;;5081836;28;20037;-61
2024/01/11 00:43:36;;;;;;;36.10;16.10;;;-4.90;99.90;;;;;;5047302;28;20049;-60
2024/01/11 00:46:02;;;;;;;36.13;16.85;;;-5.00;99.90;;;;;;5082079;28;20083;-60
2024/01/11 00:48:28;;;;;;;35.00;16.75;;;-5.00;99.90;;;;;;5081603;28;20055;-60
2024/01/11 00:50:54;;;;;;;40.90;16.40;;;-4.90;99.90;;;;;;5063759;28;20529;-60
2024/01/11 00:53:19;;;;;;;31.20;15.57;;;-4.70;99.90;;;;;;5063400;28;20441;-60
2024/01/11 00:55:45;;;;;;;37.75;16.42;;;-4.80;99.90;;;;;;5081590;28;20068;-58
2024/01/11 00:58:11;;;;;;;35.45;16.42;;;-4.90;99.90;;;;;;5046940;28;20055;-60
2024/01/11 01:00:36;;;;;;;36.38;16.65;;;-4.50;99.90;;;;;;5081444;28;20059;-60
2024/01/11 01:03:02;;;;;;;33.97;16.27;;;-4.50;99.90;;;;;;5063640;28;20052;-60
2024/01/11 01:05:28;;;;;;;36.67;15.05;;;-5.00;99.90;;;;;;5079502;28;20056;-60
2024/01/11 01:07:54;;;;;;;35.42;16.05;;;-4.80;99.90;;;;;;5081414;28;20056;-61
2024/01/11 01:10:19;;;;;;;33.40;15.50;;;-4.50;99.90;;;;;;5081443;28;20041;-62
2024/01/11 01:12:45;;;;;;;33.33;15.77;;;-4.90;99.90;;;;;;5046872;28;20044;-61
2024/01/11 01:15:11;;;;;;;37.17;15.88;;;-4.80;99.90;;;;;;5080998;28;20067;-60
2024/01/11 01:17:37;;;;;;;34.92;14.57;;;-4.80;99.90;;;;;;5046418;28;20049;-60
2024/01/11 01:20:03;;;;;;;40.63;17.35;;;-4.40;99.90;;;;;;5062966;28;20070;-60
2024/01/11 01:22:29;;;;;;;38.95;16.73;;;-4.90;99.90;;;;;;5081387;28;20056;-60
2024/01/11 01:24:54;;;;;;;37.13;16.23;;;-4.70;99.90;;;;;;5063315;28;20037;-60
2024/01/11 01:27:20;;;;;;;34.42;16.08;;;-4.70;99.90;;;;;;5081101;28;20040;-60
2024/01/11 01:29:46;;;;;;;35.22;16.80;;;-4.90;99.90;;;;;;5063132;28;20047;-61
2024/01/11 01:32:12;;;;;;;39.17;17.88;;;-4.50;99.90;;;;;;5080212;28;20045;-61
2024/01/11 01:34:37;;;;;;;35.72;16.48;;;-4.90;99.90;;;;;;5062506;28;20401;-60
2024/01/11 01:37:03;;;;;;;35.95;15.70;;;-4.70;99.90;;;;;;5062863;28;20079;-60
2024/01/11 01:39:29;;;;;;;39.20;16.83;;;-4.50;99.90;;;;;;5062895;28;20055;-60
2024/01/11 01:41:54;;;;;;;38.53;17.90;;;-4.70;99.90;;;;;;5080984;28;20050;-59
2024/01/11 01:44:20;;;;;;;37.58;16.27;;;-4.60;99.90;;;;;;5081021;28;20102;-60
2024/01/11 01:46:47;;;;;;;35.33;16.88;;;-4.90;99.90;;;;;;5062805;28;20098;-59
2024/01/11 01:49:14;;;;;;;38.47;16.05;;;-4.40;99.90;;;;;;5062314;28;20123;-60
2024/01/11 01:51:39;;;;;;;37.90;16.90;;;-4.10;99.90;;;;;;5080398;28;20040;-59
2024/01/11 01:54:06;;;;;;;40.53;16.05;;;-4.40;99.90;;;;;;5080302;28;20052;-59
2024/01/11 01:56:32;;;;;;;38.63;17.52;;;-4.80;99.90;;;;;;5080812;28;20056;-59
2024/01/11 01:59:00;;;;;;;38.22;14.77;;;-4.70;99.90;;;;;;5062801;28;20044;-60
2024/01/11 02:01:27;;;;;;;35.22;15.75;;;-4.50;99.90;;;;;;5080723;28;20059;-60
2024/01/11 02:03:54;;;;;;;33.30;15.05;;;-4.50;99.90;;;;;;5079559;28;20060;-60
2024/01/11 02:06:25;;;;;;;40.33;16.67;;;-4.50;99.90;;;;;;5045249;28;20513;-60
2024/01/11 02:08:53;;;;;;;37.25;16.30;;;-5.10;99.90;;;;;;5080126;28;20044;-59
2024/01/11 02:11:21;;;;;;;38.53;16.30;;;-5.00;99.90;;;;;;5079950;28;20060;-59
2024/01/11 02:13:47;;;;;;;39.42;16.05;;;-4.90;99.90;;;;;;5080662;28;20051;-60
2024/01/11 02:16:13;;;;;;;36.53;15.02;;;-4.50;99.90;;;;;;5080083;28;20048;-59
2024/01/11 02:18:39;;;;;;;37.15;14.77;;;-4.40;99.90;;;;;;5080207;28;20059;-60
2024/01/11 02:21:09;;;;;;;37.42;17.33;;;-4.80;99.90;;;;;;5045413;28;20044;-59
2024/01/11 02:23:42;;;;;;;37.88;16.73;;;-4.80;99.90;;;;;;5080092;28;20048;-59
2024/01/11 02:26:08;;;;;;;37.00;16.55;;;-4.70;99.90;;;;;;5079686;28;20040;-59
2024/01/11 02:28:34;;;;;;;40.50;16.35;;;-4.70;99.90;;;;;;5079763;28;20055;-60
2024/01/11 02:30:59;;;;;;;35.67;15.70;;;-5.00;99.90;;;;;;5045394;28;20056;-59
2024/01/11 02:33:25;;;;;;;33.60;16.35;;;-4.80;99.90;;;;;;5079923;28;20041;-60
2024/01/11 02:35:51;;;;;;;34.85;15.70;;;-5.10;99.90;;;;;;5061802;28;20052;-59
2024/01/11 02:38:17;;;;;;;36.80;16.05;;;-5.00;99.90;;;;;;5079723;28;20459;-60
2024/01/11 02:40:44;;;;;;;41.33;16.67;;;-5.10;99.90;;;;;;5077833;28;20061;-60
2024/01/11 02:43:10;;;;;;;34.40;15.13;;;-4.70;99.90;;;;;;5079322;28;20127;-60
2024/01/11 02:45:36;;;;;;;37.80;16.02;;;-5.10;99.90;;;;;;5060248;28;20040;-60
2024/01/11 02:48:02;;;;;;;36.60;15.73;;;-5.00;99.90;;;;;;5079590;28;20040;-60
2024/01/11 02:50:28;;;;;;;39.70;17.15;;;-4.70;99.90;;;;;;5061715;28;20480;-60
2024/01/11 02:52:53;;;;;;;35.92;15.95;;;-5.30;99.90;;;;;;5061471;28;20562;-59
2024/01/11 02:55:19;;;;;;;39.53;17.65;;;-4.90;99.90;;;;;;5061268;28;20451;-59
2024/01/11 02:57:45;;;;;;;37.05;16.25;;;-5.40;99.90;;;;;;5078952;28;20055;-60
2024/01/11 03:00:11;;;;;;;35.42;16.40;;;-5.40;99.90;;;;;;5044113;28;20045;-59
2024/01/11 03:02:40;;;;;;;38.17;17.30;;;-4.90;99.90;;;;;;5061140;28;20049;-59
2024/01/11 03:05:06;;;;;;;33.35;15.95;;;-4.90;99.90;;;;;;5079053;28;20052;-59
2024/01/11 03:07:32;;;;;;;36.83;15.85;;;-5.10;99.90;;;;;;5079111;28;20406;-59
2024/01/11 03:09:58;;;;;;;33.83;14.70;;;-5.00;99.90;;;;;;5078883;28;20045;-59
2024/01/11 03:12:26;;;;;;;35.10;15.30;;;-5.30;99.90;;;;;;5079030;28;20040;-59
2024/01/11 03:14:51;;;;;;;35.15;15.27;;;-5.10;99.90;;;;;;5079020;28;20092;-60
2024/01/11 03:17:17;;;;;;;36.10;14.75;;;-5.00;99.90;;;;;;5078855;28;20056;-59
2024/01/11 03:19:43;;;;;;;38.20;15.38;;;-4.80;99.90;;;;;;5077282;28;20044;-59
2024/01/11 03:22:08;;;;;;;40.72;17.13;;;-4.80;99.90;;;;;;5060924;28;20059;-59
2024/01/11 03:24:39;;;;;;;36.85;16.13;;;-4.90;99.90;;;;;;5079081;28;20101;-59
2024/01/11 03:27:05;;;;;;;39.20;16.85;;;-4.70;99.90;;;;;;5061091;28;20049;-60
2024/01/11 03:29:31;;;;;;;37.75;16.08;;;-4.70;99.90;;;;;;5079013;28;20037;-59
2024/01/11 03:31:57;;;;;;;31.33;14.35;;;-5.10;99.90;;;;;;5077255;28;20097;-59
2024/01/11 03:34:22;;;;;;;43.17;16.92;;;-5.10;99.90;;;;;;5078232;28;20076;-59
2024/01/11 03:36:48;;;;;;;42.17;17.30;;;-4.80;99.90;;;;;;5078540;28;20044;-60
2024/01/11 03:39:14;;;;;;;34.63;15.80;;;-4.60;99.90;;;;;;5060813;28;20036;-60
2024/01/11 03:41:48;;;;;;;40.70;18.13;;;-5.10;99.90;;;;;;5078611;28;20044;-59
2024/01/11 03:44:14;;;;;;;37.20;16.80;;;-4.60;99.90;;;;;;5060767;28;20044;-59
2024/01/11 03:46:40;;;;;;;34.65;15.20;;;-5.00;99.90;;;;;;5077187;28;20083;-59
2024/01/11 03:49:07;;;;;;;38.30;16.33;;;-4.50;99.90;;;;;;5060601;28;20044;-60
2024/01/11 03:51:34;;;;;;;38.83;17.05;;;-4.60;99.90;;;;;;5060159;28;20076;-60
2024/01/11 03:54:00;;;;;;;37.50;15.23;;;-4.90;99.90;;;;;;5077106;28;20100;-59
2024/01/11 03:56:25;;;;;;;36.95;16.65;;;-4.60;99.90;;;;;;5080770;28;20052;-59
2024/01/11 03:58:51;;;;;;;34.38;16.80;;;-4.40;99.90;;;;;;5082967;28;20029;-59
2024/01/11 04:01:17;;;;;;;36.97;16.35;;;-4.30;99.90;;;;;;5064767;28;20044;-59
2024/01/11 04:03:42;;;;;;;36.53;16.23;;;-4.80;99.90;;;;;;5082620;28;20064;-59
2024/01/11 04:06:08;;;;;;;39.22;15.75;;;-4.90;99.90;;;;;;5082536;28;20055;-59
2024/01/11 04:08:34;;;;;;;38.88;16.35;;;-4.90;99.90;;;;;;5082303;28;20045;-60
2024/01/11 04:11:04;;;;;;;36.72;16.63;;;-4.80;99.90;;;;;;5080966;28;20147;-59
2024/01/11 04:13:29;;;;;;;40.63;17.05;;;-5.00;99.90;;;;;;5082579;28;20045;-60
2024/01/11 04:15:55;;;;;;;42.10;17.27;;;-4.90;99.90;;;;;;5082435;28;20514;-59
2024/01/11 04:18:21;;;;;;;36.58;15.50;;;-4.70;99.90;;;;;;5080446;28;20047;-59
2024/01/11 04:20:46;;;;;;;39.95;16.70;;;-4.50;99.90;;;;;;5082478;28;20044;-59
2024/01/11 04:23:12;;;;;;;43.92;18.27;;;-4.50;99.90;;;;;;5082537;28;20055;-59
2024/01/11 04:25:37;;;;;;;36.25;16.17;;;-4.60;99.90;;;;;;5082117;28;20068;-60
2024/01/11 04:28:03;;;;;;;41.53;17.60;;;-4.60;99.90;;;;;;5082146;28;20041;-59
2024/01/11 04:30:29;;;;;;;37.65;16.65;;;-4.10;99.90;;;;;;5082194;28;20044;-60
2024/01/11 04:32:55;;;;;;;43.03;18.10;;;-4.40;99.90;;;;;;5082305;28;20055;-60
2024/01/11 04:35:20;;;;;;;41.42;17.98;;;-4.30;99.90;;;;;;5047110;28;20108;-59
2024/01/11 04:37:46;;;;;;;39.95;16.92;;;-4.50;99.90;;;;;;5082327;28;20033;-59
2024/01/11 04:40:11;;;;;;;40.33;17.48;;;-3.70;99.90;;;;;;5081472;28;20066;-59
2024/01/11 04:42:37;;;;;;;38.90;17.13;;;-3.70;99.90;;;;;;5081963;28;20055;-60
2024/01/11 04:45:04;;;;;;;41.60;17.55;;;-3.60;99.90;;;;;;5081532;28;20461;-60
2024/01/11 04:47:30;;;;;;;44.47;17.77;;;-3.70;99.90;;;;;;5081773;28;20114;-59
2024/01/11 04:49:56;;;;;;;38.33;17.95;;;-3.50;99.90;;;;;;5081570;28;20044;-59
2024/01/11 04:52:21;;;;;;;42.17;16.65;;;-3.90;99.90;;;;;;5081880;28;20068;-60
2024/01/11 04:54:47;;;;;;;41.75;16.08;;;-4.00;99.90;;;;;;5081698;28;20059;-60
2024/01/11 04:57:13;;;;;;;39.60;16.63;;;-3.10;99.90;;;;;;5063794;28;20559;-60
2024/01/11 04:59:38;;;;;;;42.72;17.25;;;-3.40;99.90;;;;;;5063584;28;20053;-60
2024/01/11 05:02:04;;;;;;;41.47;18.38;;;-3.30;99.90;;;;;;5081384;28;20055;-60
2024/01/11 05:04:30;;;;;;;39.80;18.85;;;-3.80;99.90;;;;;;5080922;28;20087;-60
2024/01/11 05:06:56;;;;;;;37.80;17.30;;;-3.10;99.90;;;;;;5079513;28;20056;-60
2024/01/11 05:09:21;;;;;;;38.83;16.45;;;-3.80;99.90;;;;;;5081263;28;20507;-60
2024/01/11 05:11:47;;;;;;;52.92;23.67;;;-3.70;99.90;;;;;;5081510;28;20044;-59
2024/01/11 05:14:13;;;;;;;51.00;19.88;;;-3.60;99.90;;;;;;5081787;28;20054;-60
2024/01/11 05:16:39;;;;;;;45.50;18.52;;;-2.90;99.90;;;;;;5079992;28;20043;-60
2024/01/11 05:19:04;;;;;;;46.92;18.95;;;-2.90;99.90;;;;;;5081158;28;20044;-59
2024/01/11 05:21:30;;;;;;;41.92;18.70;;;-3.60;99.90;;;;;;5079766;28;20040;-59
2024/01/11 05:23:56;;;;;;;41.88;16.40;;;-3.40;99.90;;;;;;5080870;28;20098;-60
2024/01/11 05:26:22;;;;;;;44.45;18.10;;;-3.20;99.90;;;;;;5081248;28;20040;-60
2024/01/11 05:28:48;;;;;;;42.20;17.67;;;-3.50;99.90;;;;;;5046773;28;20454;-59
2024/01/11 05:31:15;;;;;;;43.05;19.02;;;-2.80;99.90;;;;;;5081399;28;20535;-60
2024/01/11 05:33:41;;;;;;;40.20;18.17;;;-3.50;99.90;;;;;;5081165;28;20076;-59
2024/01/11 05:36:07;;;;;;;43.92;17.00;;;-2.90;99.90;;;;;;5062417;28;20040;-60
2024/01/11 05:38:34;;;;;;;43.08;18.60;;;-2.70;99.90;;;;;;5080623;28;20234;-60
2024/01/11 05:41:00;;;;;;;41.97;18.23;;;-3.10;99.90;;;;;;5062790;28;20052;-59
2024/01/11 05:43:26;;;;;;;41.42;18.75;;;-2.70;99.90;;;;;;5080896;28;20045;-59
2024/01/11 05:45:52;;;;;;;40.90;18.38;;;-2.60;99.90;;;;;;5081130;28;20036;-60
2024/01/11 05:48:17;;;;;;;41.55;17.42;;;-3.50;99.90;;;;;;5080843;28;20043;-60
2024/01/11 05:50:44;;;;;;;39.30;17.08;;;-2.60;99.90;;;;;;5080678;28;20044;-59
2024/01/11 05:53:11;;;;;;;39.15;16.27;;;-3.30;99.90;;;;;;5062249;28;20084;-60
2024/01/11 05:55:37;;;;;;;42.97;17.70;;;-2.90;99.90;;;;;;5080485;28;20100;-60
2024/01/11 05:58:03;;;;;;;39.38;16.98;;;-2.40;99.90;;;;;;5062320;28;20055;-60
2024/01/11 06:00:29;;;;;;;42.47;18.30;;;-2.70;99.90;;;;;;5080271;28;20045;-60
2024/01/11 06:02:55;;;;;;;38.95;17.33;;;-2.80;99.90;;;;;;5080579;28;20044;-60
2024/01/11 06:05:20;;;;;;;39.88;17.92;;;-2.80;99.90;;;;;;5080181;28;20048;-60
2024/01/11 06:07:47;;;;;;;44.90;19.17;;;-3.20;99.90;;;;;;5076111;28;20048;-60
2024/01/11 06:10:13;;;;;;;44.45;19.63;;;-3.20;99.90;;;;;;5059120;28;20520;-60
2024/01/11 06:12:40;;;;;;;42.00;18.95;;;-2.80;99.90;;;;;;5076834;28;20101;-60
2024/01/11 06:15:06;;;;;;;43.33;19.10;;;-3.40;99.90;;;;;;5042367;28;20058;-60
2024/01/11 06:17:32;;;;;;;38.83;15.88;;;-2.70;99.90;;;;;;5042290;28;20052;-59
2024/01/11 06:19:57;;;;;;;43.42;19.13;;;-3.30;99.90;;;;;;5076194;28;20103;-60
2024/01/11 06:22:23;;;;;;;41.30;17.60;;;-3.20;99.90;;;;;;5076671;28;20052;-60
2024/01/11 06:24:49;;;;;;;44.25;18.23;;;-2.30;99.90;;;;;;5075314;28;20037;-60
2024/01/11 06:27:14;;;;;;;44.17;18.77;;;-2.30;99.90;;;;;;5076430;28;20036;-60
2024/01/11 06:29:40;;;;;;;57.08;22.23;;;-3.20;99.90;;;;;;5076456;28;20044;-60
2024/01/11 06:32:07;;;;;;;53.00;23.98;;;-3.10;99.90;;;;;;5076454;28;20467;-60
2024/01/11 06:34:34;;;;;;;47.10;21.90;;;-3.10;99.90;;;;;;5058090;28;20064;-60
2024/01/11 06:36:59;;;;;;;49.47;21.60;;;-3.00;99.90;;;;;;5075177;28;20052;-60
2024/01/11 06:39:25;;;;;;;55.72;24.55;;;-3.10;99.90;;;;;;5058631;28;20109;-60
2024/01/11 06:41:51;;;;;;;49.17;21.27;;;-3.00;99.90;;;;;;5074596;28;20067;-59
2024/01/11 06:44:17;;;;;;;50.00;21.92;;;-2.10;99.90;;;;;;5076176;28;20056;-60
2024/01/11 06:46:43;;;;;;;42.17;18.88;;;-3.00;99.90;;;;;;5058291;28;20044;-60
2024/01/11 06:49:09;;;;;;;47.15;20.83;;;-2.70;99.90;;;;;;5074966;28;20044;-60
2024/01/11 06:51:34;;;;;;;41.95;19.08;;;-2.70;99.90;;;;;;5057087;28;20048;-63
2024/01/11 06:54:01;;;;;;;44.67;18.70;;;-2.20;99.90;;;;;;5056950;28;20108;-61
2024/01/11 06:56:27;;;;;;;43.45;18.35;;;-2.90;99.90;;;;;;5058394;28;20052;-61
2024/01/11 06:58:54;;;;;;;41.92;19.60;;;-2.90;99.90;;;;;;5076152;28;20174;-58
2024/01/11 07:01:20;;;;;;;43.38;19.48;;;-2.20;99.90;;;;;;5057964;28;20080;-61
2024/01/11 07:03:46;;;;;;;46.50;18.33;;;-2.50;99.90;;;;;;5075253;28;20092;-60
2024/01/11 07:06:11;;;;;;;44.70;18.38;;;-1.90;99.90;;;;;;5057447;28;20116;-61
2024/01/11 07:08:37;;;;;;;40.60;17.85;;;-3.00;99.90;;;;;;5057733;28;20925;-61
2024/01/11 07:11:03;;;;;;;42.83;18.85;;;-2.20;99.90;;;;;;5075790;28;20044;-61
2024/01/11 07:13:31;;;;;;;38.70;18.13;;;-2.00;99.90;;;;;;5075884;28;20053;-60
2024/01/11 07:15:57;;;;;;;46.08;18.80;;;-2.90;99.90;;;;;;5075254;28;20053;-61
2024/01/11 07:18:24;;;;;;;43.72;17.85;;;-1.80;99.90;;;;;;5074430;28;20077;-60
2024/01/11 07:20:51;;;;;;;43.78;17.90;;;-1.70;99.90;;;;;;5075135;28;20078;-60
2024/01/11 07:23:16;;;;;;;43.00;18.80;;;-2.20;99.90;;;;;;5075252;28;20084;-60
2024/01/11 07:25:42;;;;;;;39.35;18.35;;;-2.40;99.90;;;;;;5056462;28;20121;-61
2024/01/11 07:28:08;;;;;;;46.75;20.17;;;-2.00;99.90;;;;;;5074759;28;20036;-60
2024/01/11 07:30:34;;;;;;;44.00;16.95;;;-1.60;99.90;;;;;;5074137;28;20116;-60
2024/01/11 07:33:00;;;;;;;41.47;17.17;;;-2.50;99.90;;;;;;5075095;28;20051;-60
2024/01/11 07:35:25;;;;;;;40.10;18.27;;;-1.50;99.90;;;;;;5056774;28;20044;-60
2024/01/11 07:37:51;;;;;;;42.97;18.33;;;-1.70;99.90;;;;;;5075013;28;20040;-60
2024/01/11 07:40:17;;;;;;;43.33;19.38;;;-2.70;99.90;;;;;;5040118;28;20045;-61
2024/01/11 07:42:43;;;;;;;42.47;18.40;;;-2.20;99.90;;;;;;5056012;28;20162;-61
2024/01/11 07:45:13;;;;;;;44.08;19.35;;;-2.60;99.90;;;;;;5074555;28;20388;-60
2024/01/11 07:47:39;;;;;;;43.65;19.48;;;-2.60;99.90;;;;;;5056529;28;20390;-61
2024/01/11 07:50:06;;;;;;;43.00;18.42;;;-1.50;99.90;;;;;;5056444;28;20135;-61
2024/01/11 07:52:33;;;;;;;41.55;19.58;;;-1.80;99.90;;;;;;5074434;28;20413;-61
2024/01/11 07:55:06;;;;;;;44.15;18.83;;;-1.70;99.90;;;;;;5074387;28;20395;-61
2024/01/11 07:57:33;;;;;;;49.33;20.85;;;-1.80;99.90;;;;;;5057689;28;20056;-61
2024/01/11 08:00:02;;;;;;;42.83;18.10;;;-2.30;99.90;;;;;;5074406;28;20048;-60
2024/01/11 08:02:28;;;;;;;45.22;19.40;;;-2.40;99.90;;;;;;5073357;28;20051;-60
2024/01/11 08:04:54;;;;;;;41.30;18.27;;;-2.10;99.90;;;;;;5073429;28;20104;-61
2024/01/11 08:07:20;;;;;;;46.20;19.52;;;-2.20;99.90;;;;;;5074308;28;20550;-61
2024/01/11 08:09:46;;;;;;;43.80;18.67;;;-1.30;99.90;;;;;;5075214;28;20076;-61
2024/01/11 08:12:15;;;;;;;42.65;17.65;;;-2.40;99.90;;;;;;5074595;28;20041;-60
2024/01/11 08:14:46;;;;;;;43.15;18.08;;;-1.70;99.90;;;;;;5072671;28;20058;-61
2024/01/11 08:17:13;;;;;;;43.33;19.17;;;-1.50;99.90;;;;;;5040459;28;20388;-61
2024/01/11 08:19:40;;;;;;;46.65;18.40;;;-2.20;99.90;;;;;;5056174;28;20086;-61
2024/01/11 08:22:06;;;;;;;42.72;19.83;;;-1.20;99.90;;;;;;5074762;28;20053;-61
2024/01/11 08:24:32;;;;;;;43.70;19.02;;;-2.10;99.90;;;;;;5074556;28;20037;-61
2024/01/11 08:26:57;;;;;;;37.75;17.70;;;-1.20;99.90;;;;;;5056420;28;20078;-61
2024/01/11 08:29:23;;;;;;;40.17;18.80;;;-1.20;99.90;;;;;;5073946;28;20377;-59
2024/01/11 08:31:50;;;;;;;40.20;16.98;;;-1.00;99.90;;;;;;5074161;28;20108;-61
2024/01/11 08:34:16;;;;;;;38.88;18.80;;;-2.20;99.90;;;;;;5039544;28;20044;-61
2024/01/11 08:36:42;;;;;;;41.45;18.58;;;-0.90;99.90;;;;;;5073853;28;20174;-61
2024/01/11 08:39:08;;;;;;;42.53;19.38;;;-1.80;99.90;;;;;;5074108;28;20100;-60
2024/01/11 08:41:43;;;;;;;42.03;18.33;;;-0.80;99.90;;;;;;5074476;28;20047;-61
2024/01/11 08:44:09;;;;;;;41.85;18.67;;;-0.80;99.90;;;;;;5077631;28;20087;-61
2024/01/11 08:46:35;;;;;;;41.80;19.05;;;-1.70;99.90;;;;;;5078041;28;20043;-61
2024/01/11 08:49:03;;;;;;;37.72;17.75;;;-0.70;99.90;;;;;;5077858;28;20045;-61
2024/01/11 08:51:29;;;;;;;41.78;17.58;;;-2.00;99.90;;;;;;5077292;28;20049;-61
2024/01/11 08:53:57;;;;;;;37.90;17.23;;;-1.70;99.90;;;;;;5075472;28;20127;-61
2024/01/11 08:56:23;;;;;;;36.22;17.88;;;-1.80;99.90;;;;;;5074274;28;20040;-60
2024/01/11 08:58:49;;;;;;;43.17;18.00;;;-1.20;99.90;;;;;;5077534;28;20098;-60
2024/01/11 09:01:15;;;;;;;37.92;18.88;;;-1.70;99.90;;;;;;5077189;28;20045;-60
2024/01/11 09:03:41;;;;;;;33.55;17.52;;;-0.60;99.90;;;;;;5057970;28;20076;-60
2024/01/11 09:06:07;;;;;;;37.90;17.88;;;-0.60;99.90;;;;;;5075678;28;20052;-60
2024/01/11 09:08:33;;;;;;;41.20;18.40;;;-0.50;99.90;;;;;;5077169;28;20119;-60
2024/01/11 09:10:59;;;;;;;38.67;18.08;;;-1.80;99.90;;;;;;5076785;28;20492;-60
2024/01/11 09:13:28;;;;;;;39.13;17.15;;;-0.60;99.90;;;;;;5077497;28;20063;-61
2024/01/11 09:15:55;;;;;;;37.67;16.88;;;-1.60;99.90;;;;;;5059223;28;20436;-61
2024/01/11 09:18:21;;;;;;;35.20;16.52;;;-0.40;99.90;;;;;;5076923;28;20056;-61
2024/01/11 09:20:49;;;;;;;36.17;16.55;;;-1.30;99.90;;;;;;5042613;28;20048;-60
2024/01/11 09:23:15;;;;;;;36.65;17.38;;;-0.20;99.90;;;;;;5077133;28;20040;-59
2024/01/11 09:25:41;;;;;;;33.85;15.82;;;-0.40;99.90;;;;;;5077102;28;20041;-61
2024/01/11 09:28:07;;;;;;;37.35;16.52;;;-0.20;99.90;;;;;;5079127;28;20450;-62
2024/01/11 09:30:33;;;;;;;37.90;16.60;;;-0.10;99.90;;;;;;5080581;28;20044;-61
2024/01/11 09:32:59;;;;;;;35.08;16.92;;;-1.00;99.90;;;;;;5080468;28;20036;-61
2024/01/11 09:35:25;;;;;;;38.00;16.77;;;-0.20;99.90;;;;;;5061951;28;20037;-61
2024/01/11 09:37:51;;;;;;;35.30;17.35;;;0.00;99.90;;;;;;5080387;28;20120;-61
2024/01/11 09:40:20;;;;;;;35.30;16.95;;;0.10;99.90;;;;;;5080215;28;20045;-61
2024/01/11 09:42:46;;;;;;;41.20;17.38;;;-1.00;99.90;;;;;;5080103;28;20099;-61
2024/01/11 09:45:16;;;;;;;37.70;16.38;;;-1.20;99.90;;;;;;5080514;28;20043;-61
2024/01/11 09:47:47;;;;;;;35.55;16.75;;;-0.90;99.90;;;;;;5080344;28;20074;-61
2024/01/11 09:50:20;;;;;;;38.67;17.25;;;-1.00;99.90;;;;;;5080377;28;20041;-61
2024/01/11 09:52:47;;;;;;;;;;;0.10;99.90;;;;;;5080754;28;20051;-61
2024/01/11 09:55:13;;;;;;;39.15;17.27;;;-1.00;99.90;;;;;;5079712;28;19950;-61
2024/01/11 09:57:44;;;;;;;36.25;15.40;;;-0.90;99.90;;;;;;5080103;28;20257;-61
2024/01/11 10:00:10;;;;;;;36.75;16.77;;;0.10;99.90;;;;;;5079855;28;20501;-61
2024/01/11 10:02:35;;;;;;;36.75;16.23;;;0.40;99.90;;;;;;5062056;28;20070;-61
2024/01/11 10:05:01;;;;;;;33.35;15.50;;;-0.80;99.90;;;;;;5079335;28;20102;-61
2024/01/11 10:07:30;;;;;;;36.50;15.77;;;0.30;99.90;;;;;;5079563;28;20040;-61
2024/01/11 10:09:58;;;;;;;34.35;16.35;;;-0.60;99.90;;;;;;5080164;28;20095;-61
2024/01/11 10:12:24;;;;;;;36.28;17.63;;;-0.20;99.90;;;;;;5061344;28;20052;-61
2024/01/11 10:14:51;;;;;;;37.45;16.45;;;-0.90;99.90;;;;;;5061799;28;20040;-61
2024/01/11 10:17:18;;;;;;;32.35;14.95;;;-0.40;99.90;;;;;;5062053;28;20062;-60
2024/01/11 10:19:43;;;;;;;34.45;15.68;;;-0.70;99.90;;;;;;5079528;28;20051;-61
2024/01/11 10:22:12;;;;;;;36.22;16.27;;;0.50;99.90;;;;;;5080163;28;20040;-60
2024/01/11 10:24:39;;;;;;;34.17;16.13;;;0.40;99.90;;;;;;5080076;28;20308;-61
2024/01/11 10:27:08;;;;;;;36.60;16.02;;;0.10;99.90;;;;;;5079829;28;20096;-61
2024/01/11 10:29:36;;;;;;;38.15;16.67;;;0.70;99.90;;;;;;5079484;28;20036;-61
2024/01/11 10:32:03;;;;;;;32.13;14.88;;;0.00;99.90;;;;;;5078017;28;20097;-61
2024/01/11 10:34:29;;;;;;;36.20;16.50;;;-0.10;99.90;;;;;;5044417;28;20083;-61
2024/01/11 10:36:54;;;;;;;34.97;16.27;;;0.00;99.90;;;;;;5060837;28;20045;-61
2024/01/11 10:39:25;;;;;;;33.20;16.23;;;0.80;99.90;;;;;;5043724;28;20052;-61
2024/01/11 10:42:09;;;;;;;36.10;15.68;;;-0.50;99.90;;;;;;5061171;28;20052;-60
2024/01/11 10:44:35;;;;;;;35.80;16.42;;;-0.60;99.90;;;;;;5061114;28;20048;-61
2024/01/11 10:47:05;;;;;;;34.88;16.55;;;0.90;99.90;;;;;;5079195;28;20075;-60
2024/01/11 10:49:32;;;;;;;36.83;16.25;;;-0.40;99.90;;;;;;5079078;28;20056;-59
2024/01/11 10:52:01;;;;;;;34.22;15.43;;;0.50;99.90;;;;;;5078361;28;20412;-61
2024/01/11 10:54:28;;;;;;;36.30;15.75;;;-0.50;99.90;;;;;;5079066;28;20041;-60
2024/01/11 10:56:56;;;;;;;35.38;14.80;;;1.10;99.90;;;;;;5079365;28;20040;-60
2024/01/11 10:59:25;;;;;;;32.80;15.18;;;1.10;99.90;;;;;;5078514;28;20054;-61
2024/01/11 11:01:56;;;;;;;33.75;15.88;;;-0.40;99.90;;;;;;5078578;28;20044;-61
2024/01/11 11:04:22;;;;;;;33.95;16.77;;;1.20;99.90;;;;;;5060054;28;20131;-61
2024/01/11 11:06:57;;;;;;;31.60;14.50;;;-0.20;99.90;;;;;;5060084;28;20536;-60
2024/01/11 11:09:23;;;;;;;31.05;14.18;;;-0.30;99.90;;;;;;5079302;28;20059;-58
2024/01/11 11:11:49;;;;;;;32.22;15.18;;;-0.40;99.90;;;;;;5078802;28;20047;-60
2024/01/11 11:14:15;;;;;;;35.53;15.23;;;-0.20;99.90;;;;;;5060773;28;20040;-61
2024/01/11 11:16:42;;;;;;;33.78;15.27;;;-0.40;99.90;;;;;;5044080;28;20048;-61
2024/01/11 11:19:08;;;;;;;34.78;15.02;;;-0.30;99.90;;;;;;5078372;28;20083;-61
2024/01/11 11:21:45;;;;;;;30.90;14.80;;;-0.30;99.90;;;;;;5060397;28;20041;-61
2024/01/11 11:24:11;;;;;;;31.73;14.95;;;0.10;99.90;;;;;;5078327;28;20048;-61
2024/01/11 11:26:37;;;;;;;32.47;16.02;;;-0.20;99.90;;;;;;5044234;28;20040;-60
2024/01/11 11:29:05;;;;;;;33.63;15.73;;;0.90;99.90;;;;;;5078608;28;20055;-60
2024/01/11 11:31:42;;;;;;;31.65;14.40;;;1.50;99.90;;;;;;5078049;28;20047;-60
2024/01/11 11:34:11;;;;;;;30.25;14.82;;;0.70;99.90;;;;;;5077967;28;20041;-60
2024/01/11 11:36:39;;;;;;;30.45;15.13;;;1.20;99.90;;;;;;5078015;28;20039;-61
2024/01/11 11:39:05;;;;;;;30.30;15.25;;;0.40;99.90;;;;;;5078359;28;20045;-60
2024/01/11 11:41:32;;;;;;;31.63;14.18;;;-0.10;99.90;;;;;;5078255;28;20048;-61
2024/01/11 11:44:02;;;;;;;27.10;14.00;;;1.20;99.90;;;;;;5060781;28;20045;-60
2024/01/11 11:46:28;;;;;;;30.63;14.52;;;1.70;99.90;;;;;;5078490;28;20467;-61
2024/01/11 11:48:55;;;;;;;26.15;13.10;;;0.10;99.90;;;;;;5059992;28;20075;-62
2024/01/11 11:51:22;;;;;;;34.05;15.05;;;1.30;99.90;;;;;;5077745;28;20083;-61
2024/01/11 11:53:49;;;;;;;32.83;13.98;;;1.20;99.90;;;;;;5060238;28;20096;-61
2024/01/11 11:56:17;;;;;;;30.13;14.07;;;0.00;99.90;;;;;;5077849;28;20056;-62
2024/01/11 11:58:43;;;;;;;29.50;14.27;;;1.80;99.90;;;;;;5059770;28;20068;-62
2024/01/11 12:01:09;;;;;;;27.25;13.63;;;1.60;99.90;;;;;;5078250;28;20060;-61
2024/01/11 12:03:37;;;;;;;33.03;14.80;;;1.80;99.90;;;;;;5077985;28;20041;-61
2024/01/11 12:06:04;;;;;;;28.48;13.60;;;0.30;99.90;;;;;;5077198;28;20100;-62
2024/01/11 12:08:31;;;;;;;24.48;11.32;;;0.70;99.90;;;;;;5077734;28;20040;-62
2024/01/11 12:10:56;;;;;;;31.23;13.93;;;2.00;99.90;;;;;;5076419;28;20098;-62
2024/01/11 12:13:23;;;;;;;29.48;14.23;;;2.10;99.90;;;;;;5077744;28;20086;-62
2024/01/11 12:15:49;;;;;;;29.38;14.20;;;-0.10;99.90;;;;;;5077649;28;20045;-60
2024/01/11 12:18:14;;;;;;;30.60;13.35;;;-0.10;99.90;;;;;;5083690;28;20076;-61
2024/01/11 12:20:40;;;;;;;27.65;14.40;;;1.50;99.90;;;;;;5089626;28;20392;-61
2024/01/11 12:23:06;;;;;;;29.77;14.50;;;0.20;99.90;;;;;;5069979;28;20885;-61
2024/01/11 12:25:32;;;;;;;27.05;12.88;;;0.50;99.90;;;;;;5070021;28;20453;-61